OKBK METAR : OKBK 211000Z 12007KT CAVOK 22/07 Q1013 NOSIG